Time;durP1;ratioP1;P1;durP2;ratioP2;P2;SDS_P1;SDS_P2;PMS_P1;PMS_P2;Temp;Humidity;BMP_temperature;BMP_pressure;BME280_temperature;BME280_humidity;BME280_pressure;Samples;Min_cycle;Max_cycle;Signal;HPM_P1;HPM_P2
2022/01/25 00:29:34;;;;;;;9.14;4.81;;;;;;;;;;372313;142;857608;-57
2022/01/25 00:30:44;;;;;;;11.62;6.14;;;;;;;;;;371490;141;857308;-57
2022/01/25 00:31:35;;;;;;;12.05;6.25;;;;;;;;;;369712;144;864962;-57
2022/01/25 00:32:36;;;;;;;11.32;5.41;;;;;;;;;;371497;142;857248;-57
2022/01/25 00:33:38;;;;;;;12.84;6.18;;;;;;;;;;368304;142;857341;-57
2022/01/25 00:34:40;;;;;;;10.77;5.66;;;;;;;;;;370157;144;866364;-57
2022/01/25 00:35:41;;;;;;;12.66;6.03;;;;;;;;;;373989;142;858976;-57
2022/01/25 00:36:43;;;;;;;10.87;5.82;;;;;;;;;;369070;144;864956;-57
2022/01/25 00:37:45;;;;;;;10.22;6.16;;;;;;;;;;372632;142;867309;-57
2022/01/25 00:38:46;;;;;;;11.25;6.13;;;;;;;;;;367512;145;861912;-57
2022/01/25 00:39:48;;;;;;;12.51;6.05;;;;;;;;;;370444;143;865057;-57
2022/01/25 00:40:49;;;;;;;9.96;6.02;;;;;;;;;;369875;142;865004;-57
2022/01/25 00:41:52;;;;;;;9.31;4.80;;;;;;;;;;366108;145;865875;-59
2022/01/25 00:42:53;;;;;;;12.84;6.32;;;;;;;;;;368414;142;866819;-57
2022/01/25 00:43:57;;;;;;;10.84;6.16;;;;;;;;;;367298;142;866027;-57
2022/01/25 00:44:59;;;;;;;11.13;5.87;;;;;;;;;;368434;142;865189;-57
2022/01/25 00:46:05;;;;;;;12.93;6.30;;;;;;;;;;366553;142;857287;-57
2022/01/25 00:47:06;;;;;;;9.07;4.96;;;;;;;;;;368139;142;857258;-57
2022/01/25 00:48:17;;;;;;;10.06;5.38;;;;;;;;;;368735;142;857616;-57
2022/01/25 00:49:14;;;;;;;10.51;5.85;;;;;;;;;;367366;142;866706;-57
2022/01/25 00:50:16;;;;;;;11.47;6.11;;;;;;;;;;368058;144;857328;-57
2022/01/25 00:51:46;;;;;;;10.49;6.04;;;;;;;;;;367480;144;860155;-57
2022/01/25 00:53:54;;;;;;;11.77;6.02;;;;;;;;;;364849;145;864951;-57
2022/01/25 00:54:50;;;;;;;14.43;6.29;;;;;;;;;;363888;144;859207;-58
2022/01/25 00:55:52;;;;;;;11.93;6.12;;;;;;;;;;370979;144;857792;-58
2022/01/25 00:56:53;;;;;;;12.71;6.06;;;;;;;;;;372100;144;864994;-58
2022/01/25 00:57:55;;;;;;;10.69;5.12;;;;;;;;;;371796;142;865110;-57
2022/01/25 00:58:57;;;;;;;11.49;5.53;;;;;;;;;;364765;145;857285;-57
2022/01/25 00:59:58;;;;;;;14.09;5.77;;;;;;;;;;368453;145;862275;-57
2022/01/25 01:01:00;;;;;;;12.09;5.63;;;;;;;;;;367457;142;857258;-57
2022/01/25 01:02:03;;;;;;;12.64;5.92;;;;;;;;;;364731;144;864936;-57
2022/01/25 01:03:05;;;;;;;14.06;6.66;;;;;;;;;;364389;145;857669;-58
2022/01/25 01:04:07;;;;;;;11.60;6.34;;;;;;;;;;368091;142;857740;-58
2022/01/25 01:05:09;;;;;;;12.45;5.74;;;;;;;;;;366255;144;866538;-58
2022/01/25 01:06:11;;;;;;;12.94;5.93;;;;;;;;;;372159;142;864760;-58
2022/01/25 01:07:15;;;;;;;12.35;5.75;;;;;;;;;;374153;142;857502;-58
2022/01/25 01:08:17;;;;;;;12.43;6.01;;;;;;;;;;371112;142;856172;-58
2022/01/25 01:09:20;;;;;;;11.48;6.39;;;;;;;;;;364282;146;865151;-61
2022/01/25 01:10:24;;;;;;;14.46;7.24;;;;;;;;;;365154;144;864993;-59
2022/01/25 01:11:34;;;;;;;11.08;6.03;;;;;;;;;;371370;141;860552;-59
2022/01/25 01:13:59;;;;;;;11.72;6.12;;;;;;;;;;371621;142;859528;-57
2022/01/25 01:15:06;;;;;;;12.43;6.41;;;;;;;;;;369559;141;857279;-57
2022/01/25 01:17:38;;;;;;;10.09;6.03;;;;;;;;;;350438;151;858004;-59
2022/01/25 01:31:23;;;;;;;11.75;5.95;;;;;;;;;;379506;138;858158;-57
2022/01/25 01:34:01;;;;;;;11.77;6.63;;;;;;;;;;378454;138;857285;-57
2022/01/25 01:35:07;;;;;;;12.07;6.19;;;;;;;;;;380158;139;857773;-58
2022/01/25 01:39:48;;;;;;;10.32;6.03;;;;;;;;;;381113;138;866122;-57
2022/01/25 01:42:10;;;;;;;10.50;6.56;;;;;;;;;;372464;142;857350;-58
2022/01/25 01:44:03;;;;;;;12.89;6.41;;;;;;;;;;381476;139;857785;-58
2022/01/25 01:45:25;;;;;;;9.19;5.32;;;;;;;;;;381879;138;857626;-58
2022/01/25 01:47:22;;;;;;;12.72;6.66;;;;;;;;;;380652;139;857394;-59
2022/01/25 01:48:29;;;;;;;11.03;5.94;;;;;;;;;;379691;140;866461;-59
2022/01/25 01:49:20;;;;;;;12.30;6.56;;;;;;;;;;372347;142;857810;-59
2022/01/25 01:50:31;;;;;;;12.10;6.06;;;;;;;;;;370563;142;865601;-59
2022/01/25 01:51:34;;;;;;;11.54;5.75;;;;;;;;;;365943;146;857725;-58
2022/01/25 01:52:36;;;;;;;13.07;6.61;;;;;;;;;;367113;145;858830;-58
2022/01/25 01:53:38;;;;;;;12.34;6.41;;;;;;;;;;372586;141;865921;-59
2022/01/25 01:54:39;;;;;;;11.21;5.96;;;;;;;;;;364763;145;857442;-58
2022/01/25 01:55:41;;;;;;;15.46;7.06;;;;;;;;;;366221;145;865776;-58
2022/01/25 01:56:43;;;;;;;13.26;6.60;;;;;;;;;;371554;142;865079;-58
2022/01/25 01:57:46;;;;;;;12.27;6.45;;;;;;;;;;372075;141;865117;-58
2022/01/25 01:58:50;;;;;;;10.88;6.43;;;;;;;;;;371293;142;857208;-58
2022/01/25 01:59:54;;;;;;;15.63;6.92;;;;;;;;;;363473;145;865878;-58
2022/01/25 02:00:56;;;;;;;14.76;6.86;;;;;;;;;;365143;144;858818;-58
2022/01/25 02:01:58;;;;;;;12.68;6.82;;;;;;;;;;364388;145;858983;-58
2022/01/25 02:03:00;;;;;;;12.63;6.25;;;;;;;;;;368503;144;864983;-57
2022/01/25 02:04:03;;;;;;;12.09;6.15;;;;;;;;;;368940;143;857345;-57
2022/01/25 02:05:05;;;;;;;10.77;6.41;;;;;;;;;;372446;143;857251;-58
2022/01/25 02:06:06;;;;;;;15.60;7.27;;;;;;;;;;371973;142;857356;-57
2022/01/25 02:07:08;;;;;;;13.12;6.36;;;;;;;;;;372750;141;858832;-57
2022/01/25 02:08:10;;;;;;;14.76;7.96;;;;;;;;;;365842;145;865263;-58
2022/01/25 02:09:11;;;;;;;12.76;6.84;;;;;;;;;;364968;145;866881;-58
2022/01/25 02:10:13;;;;;;;11.31;6.47;;;;;;;;;;369716;144;862644;-57
2022/01/25 02:11:15;;;;;;;12.28;6.64;;;;;;;;;;365881;144;857399;-58
2022/01/25 02:12:16;;;;;;;13.74;6.08;;;;;;;;;;366413;144;865116;-57
2022/01/25 02:13:18;;;;;;;12.99;5.99;;;;;;;;;;365499;144;859794;-58
2022/01/25 02:14:20;;;;;;;12.68;6.51;;;;;;;;;;364136;144;861918;-57
2022/01/25 02:15:22;;;;;;;15.36;7.18;;;;;;;;;;369360;144;862414;-59
2022/01/25 02:22:50;;;;;;;11.70;5.32;;;;;;;;;;369984;143;859717;-57
2022/01/25 02:23:51;;;;;;;15.44;6.86;;;;;;;;;;371763;143;865877;-57
2022/01/25 02:24:53;;;;;;;12.11;5.64;;;;;;;;;;371338;143;864944;-57
2022/01/25 02:25:56;;;;;;;13.78;6.00;;;;;;;;;;370078;142;864950;-57
2022/01/25 02:26:57;;;;;;;12.36;6.41;;;;;;;;;;365898;146;865000;-56
2022/01/25 02:27:59;;;;;;;9.49;5.79;;;;;;;;;;366676;145;857240;-55
2022/01/25 02:29:00;;;;;;;13.74;6.65;;;;;;;;;;365366;145;865033;-57
2022/01/25 02:30:02;;;;;;;10.94;5.85;;;;;;;;;;366695;145;864952;-58
2022/01/25 02:31:04;;;;;;;10.99;5.93;;;;;;;;;;371997;143;865471;-57
2022/01/25 02:32:06;;;;;;;9.64;5.79;;;;;;;;;;370575;142;859130;-57
2022/01/25 02:33:08;;;;;;;6.35;3.95;;;;;;;;;;370242;142;858978;-57
2022/01/25 02:34:09;;;;;;;15.07;6.51;;;;;;;;;;371778;142;857460;-58
2022/01/25 02:35:11;;;;;;;7.21;4.04;;;;;;;;;;371650;143;866998;-57
2022/01/25 02:36:14;;;;;;;11.73;6.51;;;;;;;;;;370057;143;866780;-57
2022/01/25 02:37:16;;;;;;;10.42;5.64;;;;;;;;;;370716;144;857530;-57
2022/01/25 02:38:22;;;;;;;12.09;5.80;;;;;;;;;;368606;142;857370;-57
2022/01/25 02:39:23;;;;;;;9.78;5.72;;;;;;;;;;370557;142;858930;-57
2022/01/25 02:40:25;;;;;;;12.06;6.49;;;;;;;;;;371114;144;857602;-57
2022/01/25 02:41:26;;;;;;;12.89;5.90;;;;;;;;;;371916;144;865547;-57
2022/01/25 02:42:28;;;;;;;9.93;5.93;;;;;;;;;;371683;144;865071;-57
2022/01/25 02:43:30;;;;;;;11.45;6.46;;;;;;;;;;373588;142;862513;-57
2022/01/25 02:44:34;;;;;;;11.33;5.89;;;;;;;;;;366059;146;857303;-57
2022/01/25 02:45:36;;;;;;;10.40;5.34;;;;;;;;;;372205;141;857271;-57
2022/01/25 02:49:01;;;;;;;10.79;5.86;;;;;;;;;;364848;146;865042;-57
2022/01/25 02:50:03;;;;;;;8.98;5.13;;;;;;;;;;371271;142;859581;-56
2022/01/25 02:51:04;;;;;;;11.23;5.79;;;;;;;;;;373035;143;857178;-57
2022/01/25 02:52:06;;;;;;;10.90;6.39;;;;;;;;;;372744;143;859024;-57
2022/01/25 02:53:07;;;;;;;8.77;5.47;;;;;;;;;;372815;142;860280;-57
2022/01/25 02:54:09;;;;;;;8.57;4.66;;;;;;;;;;373509;142;859432;-57
2022/01/25 02:55:11;;;;;;;10.16;5.37;;;;;;;;;;374956;142;866273;-57
2022/01/25 02:56:13;;;;;;;9.07;5.47;;;;;;;;;;372524;142;859840;-57
2022/01/25 02:57:15;;;;;;;11.34;6.07;;;;;;;;;;371990;143;857525;-57
2022/01/25 02:58:16;;;;;;;9.01;5.54;;;;;;;;;;373314;142;858368;-57
2022/01/25 02:59:18;;;;;;;10.31;5.94;;;;;;;;;;372480;142;857384;-57
2022/01/25 03:00:21;;;;;;;10.73;5.71;;;;;;;;;;372879;143;857342;-57
2022/01/25 03:01:24;;;;;;;13.34;5.96;;;;;;;;;;373097;141;857511;-57
2022/01/25 03:02:25;;;;;;;12.41;5.57;;;;;;;;;;385864;137;857163;-57
2022/01/25 03:03:27;;;;;;;10.82;5.57;;;;;;;;;;387557;136;857655;-58
2022/01/25 03:04:29;;;;;;;10.98;6.09;;;;;;;;;;390082;136;858147;-57
2022/01/25 03:05:31;;;;;;;10.43;5.34;;;;;;;;;;389998;136;865546;-57
2022/01/25 03:06:32;;;;;;;11.47;5.97;;;;;;;;;;388760;136;865443;-57
2022/01/25 03:07:34;;;;;;;8.71;5.00;;;;;;;;;;389372;135;857922;-57
2022/01/25 03:08:36;;;;;;;9.53;5.22;;;;;;;;;;379642;139;864999;-57
2022/01/25 03:09:39;;;;;;;8.62;4.34;;;;;;;;;;379965;137;857449;-57
2022/01/25 03:10:42;;;;;;;10.88;5.51;;;;;;;;;;390207;135;865832;-57
2022/01/25 03:11:46;;;;;;;11.79;5.95;;;;;;;;;;387839;136;857267;-57
2022/01/25 03:12:55;;;;;;;7.33;4.95;;;;;;;;;;388258;136;859117;-59
2022/01/25 03:13:56;;;;;;;12.11;5.30;;;;;;;;;;384744;137;857227;-58
2022/01/25 03:15:21;;;;;;;9.09;5.66;;;;;;;;;;387793;137;857728;-58
2022/01/25 03:16:07;;;;;;;11.93;6.08;;;;;;;;;;385697;137;857500;-58
2022/01/25 03:17:08;;;;;;;9.56;5.72;;;;;;;;;;377221;138;865005;-58
2022/01/25 03:18:23;;;;;;;7.41;4.14;;;;;;;;;;387950;136;858671;-57
2022/01/25 03:20:49;;;;;;;6.55;3.90;;;;;;;;;;387372;136;858950;-59
2022/01/25 03:21:39;;;;;;;8.34;5.01;;;;;;;;;;386146;135;859413;-57
2022/01/25 03:23:46;;;;;;;8.57;4.68;;;;;;;;;;388665;137;857865;-57
2022/01/25 03:24:47;;;;;;;9.43;5.14;;;;;;;;;;385349;137;857358;-57
2022/01/25 03:25:49;;;;;;;10.11;5.69;;;;;;;;;;380078;138;857281;-58
2022/01/25 03:26:51;;;;;;;10.12;5.57;;;;;;;;;;388375;135;866434;-58
2022/01/25 03:27:53;;;;;;;7.43;4.14;;;;;;;;;;387724;135;859428;-57
2022/01/25 03:28:54;;;;;;;9.46;3.92;;;;;;;;;;386866;136;858234;-58
2022/01/25 03:29:56;;;;;;;10.59;5.52;;;;;;;;;;387250;135;864822;-59
2022/01/25 03:30:57;;;;;;;8.64;4.99;;;;;;;;;;388789;138;865463;-59
2022/01/25 03:31:59;;;;;;;8.91;4.36;;;;;;;;;;387564;135;861911;-60
2022/01/25 03:33:01;;;;;;;8.98;5.14;;;;;;;;;;388655;137;865083;-58
2022/01/25 03:34:02;;;;;;;6.16;4.01;;;;;;;;;;388201;137;863257;-58
2022/01/25 03:35:04;;;;;;;8.56;5.11;;;;;;;;;;387275;137;861667;-58
2022/01/25 03:36:07;;;;;;;8.43;4.52;;;;;;;;;;388364;136;857255;-58
2022/01/25 03:37:09;;;;;;;10.28;5.36;;;;;;;;;;386315;137;857325;-58
2022/01/25 03:38:10;;;;;;;8.24;5.14;;;;;;;;;;387361;136;858821;-58
2022/01/25 03:39:12;;;;;;;9.13;5.47;;;;;;;;;;389132;136;865134;-58
2022/01/25 03:40:14;;;;;;;9.71;5.74;;;;;;;;;;385032;137;862116;-58
2022/01/25 03:41:16;;;;;;;8.85;5.39;;;;;;;;;;388208;137;856304;-60
2022/01/25 03:42:19;;;;;;;10.43;5.62;;;;;;;;;;386884;136;864173;-58
2022/01/25 03:43:21;;;;;;;11.03;5.78;;;;;;;;;;388753;135;857347;-58
2022/01/25 03:44:23;;;;;;;11.71;6.20;;;;;;;;;;391857;135;857240;-57
2022/01/25 03:45:30;;;;;;;10.26;5.81;;;;;;;;;;390059;135;857263;-57
2022/01/25 03:46:56;;;;;;;9.29;5.74;;;;;;;;;;386741;136;866038;-58
2022/01/25 03:47:57;;;;;;;10.11;5.66;;;;;;;;;;385087;136;864984;-58
2022/01/25 03:50:08;;;;;;;10.51;5.93;;;;;;;;;;387705;136;864994;-58
2022/01/25 03:51:10;;;;;;;8.71;5.06;;;;;;;;;;387757;137;858766;-57
2022/01/25 03:52:13;;;;;;;10.71;5.26;;;;;;;;;;387934;135;866893;-56
2022/01/25 03:53:15;;;;;;;10.13;5.44;;;;;;;;;;380173;138;865737;-56
2022/01/25 03:54:16;;;;;;;9.41;5.41;;;;;;;;;;379920;139;856881;-58
2022/01/25 03:55:18;;;;;;;10.15;5.97;;;;;;;;;;388189;137;857306;-59
2022/01/25 03:56:21;;;;;;;11.25;5.62;;;;;;;;;;388159;136;858298;-58
2022/01/25 03:57:23;;;;;;;9.25;5.31;;;;;;;;;;379720;138;858658;-58
2022/01/25 03:58:26;;;;;;;9.43;6.01;;;;;;;;;;387889;136;859928;-58
2022/01/25 03:59:29;;;;;;;10.31;5.52;;;;;;;;;;386901;137;858449;-58
2022/01/25 04:00:31;;;;;;;9.18;5.51;;;;;;;;;;388110;136;858074;-57
2022/01/25 04:01:36;;;;;;;7.75;5.15;;;;;;;;;;384995;135;858076;-58
2022/01/25 04:02:48;;;;;;;10.19;5.26;;;;;;;;;;388231;135;857406;-58
2022/01/25 04:03:53;;;;;;;12.03;6.28;;;;;;;;;;386769;137;857211;-57
2022/01/25 04:04:47;;;;;;;10.38;6.29;;;;;;;;;;386264;136;865733;-57
2022/01/25 04:05:51;;;;;;;11.93;6.17;;;;;;;;;;384519;135;857420;-57
2022/01/25 04:06:53;;;;;;;9.73;5.76;;;;;;;;;;387885;137;858929;-58
2022/01/25 04:07:55;;;;;;;9.23;5.48;;;;;;;;;;389784;135;864915;-57
2022/01/25 04:08:57;;;;;;;9.44;5.67;;;;;;;;;;388194;137;857309;-57
2022/01/25 04:09:59;;;;;;;4.99;3.55;;;;;;;;;;388410;136;865035;-58
2022/01/25 04:11:00;;;;;;;9.14;5.39;;;;;;;;;;388355;136;859745;-58
2022/01/25 04:12:02;;;;;;;6.79;4.79;;;;;;;;;;389154;135;864825;-59
2022/01/25 04:13:04;;;;;;;10.23;5.31;;;;;;;;;;383907;136;864839;-57
2022/01/25 04:14:06;;;;;;;8.43;4.83;;;;;;;;;;387774;136;858262;-57
2022/01/25 04:15:08;;;;;;;11.69;5.75;;;;;;;;;;387610;138;857802;-56
2022/01/25 04:16:16;;;;;;;10.36;5.23;;;;;;;;;;387901;137;858450;-57
2022/01/25 04:17:17;;;;;;;10.68;5.98;;;;;;;;;;385574;137;856344;-57
2022/01/25 04:20:35;;;;;;;8.49;4.37;;;;;;;;;;387466;136;864974;-58
2022/01/25 04:25:18;;;;;;;10.50;5.93;;;;;;;;;;388754;135;857522;-56
2022/01/25 04:26:20;;;;;;;10.39;6.17;;;;;;;;;;389533;135;865376;-57
2022/01/25 04:27:23;;;;;;;9.71;5.87;;;;;;;;;;389533;135;858382;-56
2022/01/25 04:28:25;;;;;;;8.03;5.33;;;;;;;;;;387344;136;857168;-57
2022/01/25 04:29:26;;;;;;;9.19;5.48;;;;;;;;;;387863;135;860087;-56
2022/01/25 04:30:28;;;;;;;10.05;6.01;;;;;;;;;;388258;136;865059;-56
2022/01/25 04:31:30;;;;;;;10.82;6.44;;;;;;;;;;386644;136;857946;-57
2022/01/25 04:32:43;;;;;;;10.00;5.83;;;;;;;;;;389743;136;864938;-59
2022/01/25 04:33:42;;;;;;;12.04;6.50;;;;;;;;;;387750;135;857791;-59
2022/01/25 04:35:08;;;;;;;12.31;6.29;;;;;;;;;;385209;136;858781;-56
2022/01/25 04:36:10;;;;;;;10.68;6.29;;;;;;;;;;387143;135;857377;-57
2022/01/25 04:50:00;;;;;;;5.92;4.11;;;;;;;;;;389043;136;858264;-57
2022/01/25 04:52:10;;;;;;;9.66;5.89;;;;;;;;;;386492;136;865599;-57
2022/01/25 04:54:32;;;;;;;7.51;5.66;;;;;;;;;;387766;137;857476;-56
2022/01/25 04:55:34;;;;;;;9.54;5.57;;;;;;;;;;388142;135;857367;-55
2022/01/25 04:56:46;;;;;;;11.36;6.44;;;;;;;;;;386626;137;857324;-56
2022/01/25 04:57:47;;;;;;;11.89;6.00;;;;;;;;;;386037;136;858788;-58
2022/01/25 04:59:07;;;;;;;7.68;4.82;;;;;;;;;;386396;137;857762;-59
2022/01/25 05:00:10;;;;;;;8.44;5.33;;;;;;;;;;387788;136;857774;-57
2022/01/25 05:01:08;;;;;;;10.13;5.61;;;;;;;;;;387854;136;859936;-57
2022/01/25 05:02:17;;;;;;;3.69;2.73;;;;;;;;;;389629;136;857713;-58
2022/01/25 05:03:23;;;;;;;5.58;3.61;;;;;;;;;;387462;136;857352;-58
2022/01/25 05:04:28;;;;;;;9.85;5.37;;;;;;;;;;387098;136;857922;-58
2022/01/25 05:05:32;;;;;;;7.62;4.00;;;;;;;;;;388067;135;860043;-57
2022/01/25 05:06:31;;;;;;;5.36;3.91;;;;;;;;;;389295;135;864777;-57
2022/01/25 05:07:56;;;;;;;6.21;4.56;;;;;;;;;;387879;137;859263;-57
2022/01/25 05:08:55;;;;;;;8.29;5.29;;;;;;;;;;387436;136;857380;-57
2022/01/25 05:09:55;;;;;;;9.83;5.37;;;;;;;;;;387252;136;857259;-57
2022/01/25 05:11:07;;;;;;;9.29;4.74;;;;;;;;;;387253;137;857932;-59
2022/01/25 05:12:05;;;;;;;8.14;4.83;;;;;;;;;;387346;138;857418;-59
2022/01/25 05:13:25;;;;;;;8.86;4.74;;;;;;;;;;380575;140;859794;-60
2022/01/25 05:14:24;;;;;;;4.48;3.27;;;;;;;;;;385450;137;857788;-57
2022/01/25 05:15:27;;;;;;;9.06;5.17;;;;;;;;;;385579;138;857759;-55
2022/01/25 05:16:32;;;;;;;8.99;4.61;;;;;;;;;;385160;137;860531;-56
2022/01/25 05:17:43;;;;;;;7.90;4.78;;;;;;;;;;388270;135;858877;-56
2022/01/25 05:18:43;;;;;;;7.19;4.62;;;;;;;;;;388659;137;859796;-58
2022/01/25 05:22:42;;;;;;;7.09;3.83;;;;;;;;;;385255;138;859556;-58
2022/01/25 05:23:43;;;;;;;8.97;4.80;;;;;;;;;;389008;136;859082;-60
2022/01/25 05:24:45;;;;;;;8.01;4.69;;;;;;;;;;389649;136;865226;-58
2022/01/25 05:25:47;;;;;;;6.31;4.43;;;;;;;;;;389055;136;864852;-58
2022/01/25 05:26:48;;;;;;;5.04;3.67;;;;;;;;;;389035;136;859022;-58
2022/01/25 05:27:50;;;;;;;5.19;3.40;;;;;;;;;;388173;137;865819;-59
2022/01/25 05:28:52;;;;;;;6.23;3.66;;;;;;;;;;387257;136;863903;-57
2022/01/25 05:29:53;;;;;;;7.08;4.73;;;;;;;;;;388770;137;866137;-58
2022/01/25 05:30:55;;;;;;;8.06;4.16;;;;;;;;;;389522;136;857702;-62
2022/01/25 05:31:57;;;;;;;9.31;5.19;;;;;;;;;;389787;137;865877;-59
2022/01/25 05:32:58;;;;;;;5.39;3.50;;;;;;;;;;387258;138;865569;-59
2022/01/25 05:34:00;;;;;;;7.20;4.45;;;;;;;;;;387243;135;857521;-60
2022/01/25 05:35:02;;;;;;;7.99;4.39;;;;;;;;;;388488;135;860186;-59
2022/01/25 05:36:04;;;;;;;8.22;4.97;;;;;;;;;;385647;136;866595;-58
2022/01/25 05:37:07;;;;;;;7.16;4.18;;;;;;;;;;388238;137;860434;-60
2022/01/25 05:38:09;;;;;;;8.53;5.09;;;;;;;;;;379840;138;858732;-59
2022/01/25 05:39:14;;;;;;;8.39;4.98;;;;;;;;;;390712;136;857501;-58
2022/01/25 05:40:18;;;;;;;8.77;5.36;;;;;;;;;;387166;137;866124;-59
2022/01/25 05:41:18;;;;;;;8.45;5.09;;;;;;;;;;386721;136;858197;-59
2022/01/25 05:42:32;;;;;;;7.75;4.34;;;;;;;;;;381575;139;857468;-57
2022/01/25 05:47:59;;;;;;;7.11;4.35;;;;;;;;;;387429;136;858251;-58
2022/01/25 05:49:00;;;;;;;8.94;4.79;;;;;;;;;;390301;136;857290;-58
2022/01/25 05:50:02;;;;;;;8.17;5.04;;;;;;;;;;389052;136;864933;-57
2022/01/25 05:51:04;;;;;;;8.65;5.24;;;;;;;;;;387324;136;864873;-57
2022/01/25 05:52:06;;;;;;;8.45;4.61;;;;;;;;;;387729;136;866748;-60
2022/01/25 05:53:07;;;;;;;5.37;3.21;;;;;;;;;;389341;136;865016;-58
2022/01/25 05:54:09;;;;;;;8.76;4.16;;;;;;;;;;387133;137;859031;-58
2022/01/25 05:55:11;;;;;;;7.52;4.72;;;;;;;;;;387468;137;864942;-59
2022/01/25 05:56:14;;;;;;;7.08;4.27;;;;;;;;;;389312;135;865030;-58
2022/01/25 05:57:15;;;;;;;10.79;4.84;;;;;;;;;;380763;140;857408;-58
2022/01/25 05:58:17;;;;;;;7.59;4.42;;;;;;;;;;378303;141;865099;-58
2022/01/25 05:59:18;;;;;;;8.29;4.73;;;;;;;;;;388348;136;857325;-58
2022/01/25 06:00:21;;;;;;;8.36;4.39;;;;;;;;;;389228;136;864767;-58
2022/01/25 06:01:23;;;;;;;7.01;4.25;;;;;;;;;;389189;137;857320;-58
2022/01/25 06:02:27;;;;;;;8.18;4.86;;;;;;;;;;387189;136;857232;-59
2022/01/25 06:03:28;;;;;;;6.51;3.81;;;;;;;;;;388771;136;865058;-59
2022/01/25 06:04:29;;;;;;;8.07;4.74;;;;;;;;;;388855;135;857897;-58
2022/01/25 06:05:31;;;;;;;7.11;4.27;;;;;;;;;;387115;137;865899;-59
2022/01/25 06:06:33;;;;;;;6.90;4.43;;;;;;;;;;387892;137;864723;-59
2022/01/25 06:07:35;;;;;;;11.93;4.70;;;;;;;;;;389300;136;857343;-58
2022/01/25 06:08:36;;;;;;;8.51;4.64;;;;;;;;;;388840;137;865556;-58
2022/01/25 06:09:40;;;;;;;9.71;5.28;;;;;;;;;;387435;136;866277;-58
2022/01/25 06:10:41;;;;;;;7.54;4.71;;;;;;;;;;387698;136;866167;-56
2022/01/25 06:11:43;;;;;;;8.23;4.67;;;;;;;;;;387797;136;865211;-57
2022/01/25 06:12:45;;;;;;;8.71;4.81;;;;;;;;;;390112;135;859405;-58
2022/01/25 06:13:46;;;;;;;7.87;4.59;;;;;;;;;;386041;137;864871;-57
2022/01/25 06:14:48;;;;;;;8.59;4.77;;;;;;;;;;384515;136;865354;-57
2022/01/25 06:15:50;;;;;;;6.42;4.45;;;;;;;;;;388604;136;858974;-58
2022/01/25 06:16:52;;;;;;;12.02;5.03;;;;;;;;;;387409;137;859262;-58
2022/01/25 06:17:53;;;;;;;7.29;4.47;;;;;;;;;;388526;136;865501;-58
2022/01/25 06:18:55;;;;;;;8.98;4.29;;;;;;;;;;391276;135;865261;-58
2022/01/25 06:19:56;;;;;;;8.33;4.61;;;;;;;;;;386753;136;862629;-58
2022/01/25 06:20:58;;;;;;;6.09;4.06;;;;;;;;;;390093;135;856222;-59
2022/01/25 06:22:00;;;;;;;9.20;4.46;;;;;;;;;;387918;135;863711;-58
2022/01/25 06:23:01;;;;;;;6.68;4.09;;;;;;;;;;388881;137;861647;-58
2022/01/25 06:24:03;;;;;;;6.29;4.17;;;;;;;;;;386077;137;861925;-58
2022/01/25 06:25:05;;;;;;;7.41;4.26;;;;;;;;;;389525;137;863173;-58
2022/01/25 06:26:07;;;;;;;8.68;4.98;;;;;;;;;;387694;138;859501;-58
2022/01/25 06:27:09;;;;;;;8.27;4.58;;;;;;;;;;386993;137;866091;-58
2022/01/25 06:28:10;;;;;;;6.21;4.30;;;;;;;;;;387793;137;865470;-58
2022/01/25 06:29:16;;;;;;;5.41;3.92;;;;;;;;;;388141;137;864932;-56
2022/01/25 06:30:18;;;;;;;8.26;4.61;;;;;;;;;;388964;137;865867;-58
2022/01/25 06:31:19;;;;;;;5.85;3.37;;;;;;;;;;389069;137;857294;-57
2022/01/25 06:32:21;;;;;;;7.99;4.07;;;;;;;;;;374311;141;859238;-58
2022/01/25 06:33:22;;;;;;;7.84;4.40;;;;;;;;;;374799;140;865825;-58
2022/01/25 06:34:24;;;;;;;8.27;4.18;;;;;;;;;;370824;142;868035;-57
2022/01/25 06:35:31;;;;;;;7.26;4.79;;;;;;;;;;386454;138;865682;-58
2022/01/25 06:36:29;;;;;;;7.19;4.49;;;;;;;;;;387821;138;863786;-58
2022/01/25 06:37:31;;;;;;;13.17;4.89;;;;;;;;;;389525;137;863728;-58
2022/01/25 06:38:32;;;;;;;10.01;4.49;;;;;;;;;;389872;137;864053;-58
2022/01/25 06:39:34;;;;;;;6.94;4.62;;;;;;;;;;385225;138;858202;-57
2022/01/25 06:40:36;;;;;;;7.06;4.35;;;;;;;;;;384918;137;862007;-58
2022/01/25 06:41:38;;;;;;;7.88;4.34;;;;;;;;;;387673;137;856429;-59
2022/01/25 06:42:40;;;;;;;6.73;3.89;;;;;;;;;;389151;137;862321;-58
2022/01/25 06:43:41;;;;;;;7.80;4.62;;;;;;;;;;386170;137;864349;-58
2022/01/25 06:44:43;;;;;;;6.49;4.46;;;;;;;;;;389073;135;863714;-58
2022/01/25 06:45:51;;;;;;;8.04;4.16;;;;;;;;;;387299;137;863882;-58
2022/01/25 06:46:48;;;;;;;5.96;3.82;;;;;;;;;;388451;137;863765;-58
2022/01/25 06:47:50;;;;;;;6.94;4.52;;;;;;;;;;387043;137;856166;-58
2022/01/25 06:48:51;;;;;;;7.79;4.45;;;;;;;;;;389456;136;863815;-58
2022/01/25 06:49:53;;;;;;;7.50;4.74;;;;;;;;;;389532;137;856118;-58
2022/01/25 06:50:54;;;;;;;7.19;4.51;;;;;;;;;;386529;137;862233;-57
2022/01/25 06:51:58;;;;;;;7.24;4.11;;;;;;;;;;386899;137;864167;-56
2022/01/25 06:52:59;;;;;;;9.49;4.96;;;;;;;;;;387839;137;863768;-56
2022/01/25 06:54:01;;;;;;;6.48;4.01;;;;;;;;;;388923;137;857349;-58
2022/01/25 06:55:04;;;;;;;8.25;4.04;;;;;;;;;;389361;137;864153;-58
2022/01/25 06:56:06;;;;;;;5.19;3.61;;;;;;;;;;389658;136;863940;-59
2022/01/25 06:57:08;;;;;;;7.35;4.29;;;;;;;;;;388812;137;863927;-58
2022/01/25 06:58:09;;;;;;;6.20;3.57;;;;;;;;;;387802;137;856842;-58
2022/01/25 06:59:11;;;;;;;8.77;4.51;;;;;;;;;;386303;137;863888;-59
2022/01/25 07:00:15;;;;;;;8.43;4.53;;;;;;;;;;389463;137;864018;-58
2022/01/25 07:01:17;;;;;;;6.62;4.19;;;;;;;;;;388836;137;856400;-58
2022/01/25 07:02:20;;;;;;;9.05;5.21;;;;;;;;;;387559;136;856438;-58
2022/01/25 07:03:22;;;;;;;5.14;3.17;;;;;;;;;;386648;137;863760;-58
2022/01/25 07:04:23;;;;;;;7.19;4.45;;;;;;;;;;381362;139;863891;-58
2022/01/25 07:05:25;;;;;;;3.77;3.06;;;;;;;;;;378792;141;856183;-58
2022/01/25 07:06:28;;;;;;;5.93;3.97;;;;;;;;;;378973;139;863860;-57
2022/01/25 07:07:30;;;;;;;9.33;4.71;;;;;;;;;;381599;140;863799;-59
2022/01/25 07:08:32;;;;;;;6.45;3.17;;;;;;;;;;381979;140;856975;-59
2022/01/25 07:09:35;;;;;;;9.13;4.68;;;;;;;;;;381070;139;856317;-59
2022/01/25 07:10:36;;;;;;;8.18;4.95;;;;;;;;;;381147;139;856769;-59
2022/01/25 07:11:38;;;;;;;7.26;4.96;;;;;;;;;;379572;140;856862;-59
2022/01/25 07:12:40;;;;;;;6.39;4.23;;;;;;;;;;378933;141;863795;-59
2022/01/25 07:13:41;;;;;;;7.80;4.84;;;;;;;;;;381347;139;863715;-59
2022/01/25 07:14:43;;;;;;;11.50;5.20;;;;;;;;;;380929;140;858522;-59
2022/01/25 07:15:44;;;;;;;8.48;4.79;;;;;;;;;;377010;140;863879;-59
2022/01/25 07:16:46;;;;;;;11.01;5.39;;;;;;;;;;380206;139;862604;-59
2022/01/25 07:17:48;;;;;;;8.53;4.70;;;;;;;;;;380187;139;864099;-59
2022/01/25 07:18:49;;;;;;;9.86;5.70;;;;;;;;;;382758;139;856140;-59
2022/01/25 07:19:51;;;;;;;9.22;5.71;;;;;;;;;;379608;140;863951;-59
2022/01/25 07:20:53;;;;;;;9.09;4.84;;;;;;;;;;381169;139;860359;-59
2022/01/25 07:21:55;;;;;;;9.97;5.11;;;;;;;;;;377877;140;865104;-59
2022/01/25 07:22:56;;;;;;;8.46;4.88;;;;;;;;;;380532;138;858960;-58
2022/01/25 07:23:58;;;;;;;8.35;4.39;;;;;;;;;;379121;139;865029;-58
2022/01/25 07:25:00;;;;;;;7.09;4.18;;;;;;;;;;381024;139;865062;-59
2022/01/25 07:26:02;;;;;;;9.39;5.22;;;;;;;;;;380048;140;857359;-59
2022/01/25 07:27:03;;;;;;;10.91;6.15;;;;;;;;;;381911;138;856158;-59
2022/01/25 07:28:05;;;;;;;11.10;5.25;;;;;;;;;;379154;139;864553;-59
2022/01/25 07:29:07;;;;;;;5.36;3.65;;;;;;;;;;381723;139;856328;-59
2022/01/25 07:30:09;;;;;;;9.00;5.34;;;;;;;;;;380032;139;864000;-59
2022/01/25 07:31:10;;;;;;;6.42;3.96;;;;;;;;;;380882;139;856566;-59
2022/01/25 07:32:12;;;;;;;9.41;4.83;;;;;;;;;;380525;139;863936;-59
2022/01/25 07:33:14;;;;;;;10.64;5.48;;;;;;;;;;381317;140;864208;-59
2022/01/25 07:34:15;;;;;;;6.17;3.99;;;;;;;;;;378698;138;856813;-58
2022/01/25 07:35:17;;;;;;;9.16;4.48;;;;;;;;;;379706;138;862380;-58
2022/01/25 07:36:19;;;;;;;10.05;5.46;;;;;;;;;;379682;139;860008;-58
2022/01/25 07:37:20;;;;;;;7.22;3.91;;;;;;;;;;379713;139;857345;-58
2022/01/25 07:38:22;;;;;;;7.19;3.80;;;;;;;;;;380575;139;856244;-58
2022/01/25 07:39:26;;;;;;;7.59;4.41;;;;;;;;;;379616;138;863828;-58
2022/01/25 07:40:27;;;;;;;6.05;3.96;;;;;;;;;;378731;139;858486;-58
2022/01/25 07:41:29;;;;;;;10.61;5.13;;;;;;;;;;371185;142;856289;-58
2022/01/25 07:42:35;;;;;;;9.44;4.98;;;;;;;;;;365206;144;856740;-58